createdAt,value
2022-08-09T00:06:17.782Z,13.57
2022-08-09T00:08:42.667Z,13.57
2022-08-09T00:16:04.729Z,13.52
2022-08-09T00:28:22.789Z,13.52
2022-08-09T00:44:28.532Z,13.34
2022-08-09T00:47:04.416Z,13.31
2022-08-09T00:51:25.700Z,13.28
2022-08-09T01:20:09.598Z,12.92
2022-08-09T01:27:35.422Z,12.86
2022-08-09T01:47:45.858Z,12.70
2022-08-09T01:51:03.909Z,12.65
2022-08-09T01:54:09.742Z,12.62
2022-08-09T02:19:46.441Z,12.46
2022-08-09T02:22:46.487Z,12.46
2022-08-09T02:30:17.464Z,12.35
2022-08-09T02:45:54.083Z,12.13
2022-08-09T02:48:48.302Z,12.13
2022-08-09T03:05:55.572Z,11.98
2022-08-09T03:18:10.712Z,11.95
2022-08-09T03:21:28.118Z,11.95
2022-08-09T03:24:52.382Z,11.94
2022-08-09T03:32:47.521Z,11.86
2022-08-09T03:36:27.293Z,11.85
2022-08-09T03:44:08.037Z,11.86
2022-08-09T04:09:15.821Z,11.95
2022-08-09T04:13:11.535Z,11.96
2022-08-09T04:33:53.176Z,12.21
2022-08-09T04:43:19.094Z,12.35
2022-08-09T04:46:59.486Z,12.45
2022-08-09T04:59:17.750Z,12.98
2022-08-09T05:02:48.619Z,13.14
2022-08-09T05:14:26.903Z,13.72
2022-08-09T05:18:55.272Z,13.86
2022-08-09T05:29:35.406Z,14.61
2022-08-09T05:36:57.117Z,15.03
2022-08-09T05:39:58.695Z,15.21
2022-08-09T05:42:30.076Z,15.41
2022-08-09T05:44:59.988Z,15.57
2022-08-09T05:47:33.213Z,15.73
2022-08-09T05:50:26.882Z,15.88
2022-08-09T05:52:53.741Z,16.05
2022-08-09T05:55:23.997Z,16.22
2022-08-09T05:57:57.456Z,16.35
2022-08-09T06:00:30.555Z,16.48
2022-08-09T06:03:03.842Z,16.65
2022-08-09T06:05:49.864Z,16.83
2022-08-09T06:08:26.625Z,17.00
2022-08-09T06:10:58.029Z,17.20
2022-08-09T06:13:33.579Z,17.38
2022-08-09T06:16:04.708Z,17.55
2022-08-09T06:18:34.818Z,17.72
2022-08-09T06:21:05.858Z,17.85
2022-08-09T06:23:59.022Z,18.03
2022-08-09T06:26:28.538Z,18.20
2022-08-09T06:28:59.287Z,18.36
2022-08-09T06:31:39.330Z,18.52
2022-08-09T06:34:09.596Z,18.69
2022-08-09T06:36:43.855Z,18.86
2022-08-09T06:39:14.690Z,19.02
2022-08-09T06:42:32.958Z,19.18
2022-08-09T06:45:09.230Z,19.33
2022-08-09T06:48:00.613Z,19.48
2022-08-09T06:50:31.218Z,19.63
2022-08-09T06:53:06.351Z,19.78
2022-08-09T06:55:34.175Z,19.92
2022-08-09T06:58:04.749Z,20.05
2022-08-09T07:00:56.359Z,20.18
2022-08-09T07:03:28.543Z,20.32
2022-08-09T07:06:03.830Z,20.45
2022-08-09T07:08:37.107Z,20.61
2022-08-09T07:16:36.311Z,21.02
2022-08-09T07:18:43.942Z,21.18
2022-08-09T07:21:20.008Z,21.30
2022-08-09T07:23:58.293Z,21.41
2022-08-09T07:26:34.272Z,21.54
2022-08-09T07:29:12.081Z,21.65
2022-08-09T07:31:45.393Z,21.78
2022-08-09T07:34:20.584Z,21.88
2022-08-09T07:36:50.520Z,21.97
2022-08-09T07:39:41.163Z,22.11
2022-08-09T07:42:11.123Z,22.24
2022-08-09T07:44:51.221Z,22.36
2022-08-09T07:47:23.113Z,22.50
2022-08-09T07:50:08.361Z,22.60
2022-08-09T07:52:40.764Z,22.72
2022-08-09T07:55:12.098Z,22.83
2022-08-09T07:57:46.689Z,22.95
2022-08-09T08:00:20.187Z,23.02
2022-08-09T08:02:50.056Z,23.09
2022-08-09T08:05:20.845Z,23.23
2022-08-09T08:08:43.003Z,23.35
2022-08-09T08:10:39.543Z,23.45
2022-08-09T08:13:23.592Z,23.49
2022-08-09T08:15:52.907Z,23.50
2022-08-09T08:18:22.357Z,23.57
2022-08-09T08:20:51.031Z,23.67
2022-08-09T08:23:20.305Z,23.75
2022-08-09T08:26:06.490Z,23.85
2022-08-09T08:28:37.382Z,23.94
2022-08-09T08:31:14.712Z,23.97
2022-08-09T08:33:52.923Z,24.02
2022-08-09T08:36:28.811Z,24.12
2022-08-09T08:39:00.519Z,24.16
2022-08-09T08:41:50.800Z,24.18
2022-08-09T08:44:27.269Z,24.25
2022-08-09T08:47:03.154Z,24.33
2022-08-09T08:49:48.290Z,24.37
2022-08-09T08:52:58.268Z,24.44
2022-08-09T08:55:11.023Z,24.46
2022-08-09T08:57:43.272Z,24.52
2022-08-09T09:00:30.103Z,24.59
2022-08-09T09:03:08.226Z,24.61
2022-08-09T09:06:01.173Z,24.65
2022-08-09T09:08:40.164Z,24.73
2022-08-09T09:11:13.844Z,24.84
2022-08-09T09:13:56.234Z,24.96
2022-08-09T09:16:30.458Z,25.05
2022-08-09T09:22:08.033Z,25.19
2022-08-09T09:24:43.946Z,25.26
2022-08-09T09:28:03.910Z,25.29
2022-08-09T09:30:28.847Z,25.36
2022-08-09T09:33:16.358Z,25.50
2022-08-09T09:40:46.262Z,25.79
2022-08-09T09:43:19.598Z,25.75
2022-08-09T09:46:46.080Z,25.72
2022-08-09T09:49:49.973Z,25.86
2022-08-09T09:52:33.356Z,26.00
2022-08-09T09:55:16.124Z,26.14
2022-08-09T09:58:03.664Z,26.13
2022-08-09T10:00:43.024Z,26.01
2022-08-09T10:03:38.127Z,26.02
2022-08-09T10:06:09.091Z,26.10
2022-08-09T10:08:54.245Z,26.12
2022-08-09T10:11:58.953Z,26.12
2022-08-09T10:14:27.323Z,26.14
2022-08-09T10:17:17.684Z,26.04
2022-08-09T10:19:52.057Z,25.99
2022-08-09T10:22:35.065Z,25.87
2022-08-09T10:25:11.827Z,25.68
2022-08-09T10:27:57.114Z,25.64
2022-08-09T10:33:29.670Z,25.93
2022-08-09T10:36:57.140Z,25.87
2022-08-09T10:39:26.982Z,25.70
2022-08-09T10:41:57.881Z,25.53
2022-08-09T10:44:30.503Z,25.40
2022-08-09T10:48:12.304Z,25.30
2022-08-09T10:50:15.050Z,25.35
2022-08-09T10:53:03.818Z,25.51
2022-08-09T10:55:49.227Z,25.51
2022-08-09T10:58:34.765Z,25.40
2022-08-09T11:03:02.145Z,25.32
2022-08-09T11:04:27.908Z,25.21
2022-08-09T11:07:57.425Z,25.11
2022-08-09T11:11:00.832Z,25.11
2022-08-09T11:13:50.587Z,25.14
2022-08-09T11:22:21.684Z,25.49
2022-08-09T11:25:08.451Z,25.49
2022-08-09T11:28:05.583Z,25.47
2022-08-09T11:30:35.607Z,25.40
2022-08-09T11:33:10.772Z,25.35
2022-08-09T11:35:49.603Z,25.33
2022-08-09T11:38:32.484Z,25.34
2022-08-09T11:41:38.002Z,25.28
2022-08-09T11:44:09.534Z,25.22
2022-08-09T11:47:00.257Z,25.20
2022-08-09T11:50:52.464Z,25.09
2022-08-09T11:53:57.701Z,24.97
2022-08-09T11:56:42.852Z,24.87
2022-08-09T11:59:30.213Z,24.81
2022-08-09T12:02:34.529Z,24.77
2022-08-09T12:04:57.932Z,24.73
2022-08-09T12:07:41.503Z,24.73
2022-08-09T12:10:32.040Z,24.73
2022-08-09T12:13:03.855Z,24.74
2022-08-09T12:15:52.328Z,24.74
2022-08-09T12:18:30.080Z,24.72
2022-08-09T12:21:03.132Z,24.72
2022-08-09T12:23:58.697Z,24.72
2022-08-09T12:26:26.154Z,24.70
2022-08-09T12:29:14.071Z,24.69
2022-08-09T12:32:01.551Z,24.67
2022-08-09T12:34:36.763Z,24.66
2022-08-09T12:37:21.393Z,24.65
2022-08-09T12:40:05.665Z,24.66
2022-08-09T12:42:35.799Z,24.67
2022-08-09T12:45:32.155Z,24.68
2022-08-09T12:47:57.329Z,24.68
2022-08-09T12:50:26.768Z,24.69
2022-08-09T12:57:36.166Z,24.71
2022-08-09T13:00:28.764Z,24.68
2022-08-09T13:07:10.872Z,24.54
2022-08-09T13:09:40.828Z,24.52
2022-08-09T13:12:10.081Z,24.53
2022-08-09T13:14:44.356Z,24.53
2022-08-09T13:17:43.894Z,24.51
2022-08-09T13:20:18.879Z,24.45
2022-08-09T13:23:01.846Z,24.41
2022-08-09T13:25:53.069Z,24.34
2022-08-09T13:28:35.976Z,24.39
2022-08-09T13:32:13.252Z,24.46
2022-08-09T13:34:01.857Z,24.53
2022-08-09T13:36:42.632Z,24.59
2022-08-09T13:41:20.855Z,24.65
2022-08-09T13:42:04.444Z,24.70
2022-08-09T13:44:33.887Z,24.69
2022-08-09T13:47:53.745Z,24.71
2022-08-09T13:50:31.077Z,24.66
2022-08-09T13:53:00.565Z,24.69
2022-08-09T13:55:30.510Z,24.74
2022-08-09T13:57:59.575Z,24.83
2022-08-09T14:00:29.736Z,24.92
2022-08-09T14:03:03.731Z,24.99
2022-08-09T14:05:59.584Z,25.07
2022-08-09T14:08:33.150Z,25.16
2022-08-09T14:11:04.014Z,25.22
2022-08-09T14:14:22.320Z,25.26
2022-08-09T14:16:34.571Z,25.26
2022-08-09T14:19:03.580Z,25.18
2022-08-09T14:21:32.509Z,25.05
2022-08-09T14:24:10.479Z,25.01
2022-08-09T14:26:51.821Z,25.05
2022-08-09T14:29:25.654Z,25.04
2022-08-09T14:32:11.195Z,25.03
2022-08-09T14:34:45.099Z,24.98
2022-08-09T14:37:14.215Z,24.92
2022-08-09T14:39:48.579Z,24.90
2022-08-09T14:42:32.120Z,24.90
2022-08-09T14:46:38.859Z,24.89
2022-08-09T14:47:57.166Z,24.83
2022-08-09T14:50:31.098Z,24.72
2022-08-09T14:53:01.225Z,24.66
2022-08-09T14:55:32.577Z,24.64
2022-08-09T14:58:04.636Z,24.59
2022-08-09T15:00:36.335Z,24.55
2022-08-09T15:03:07.392Z,24.57
2022-08-09T15:05:38.551Z,24.62
2022-08-09T15:08:10.283Z,24.60
2022-08-09T15:10:39.994Z,24.62
2022-08-09T15:13:12.743Z,24.63
2022-08-09T15:15:43.702Z,24.60
2022-08-09T15:18:14.175Z,24.56
2022-08-09T15:21:54.616Z,24.54
2022-08-09T15:24:06.098Z,24.53
2022-08-09T15:26:30.831Z,24.55
2022-08-09T15:29:04.253Z,24.54
2022-08-09T15:31:41.559Z,24.56
2022-08-09T15:34:32.503Z,24.57
2022-08-09T15:37:04.335Z,24.55
2022-08-09T15:39:43.857Z,24.54
2022-08-09T15:42:22.259Z,24.50
2022-08-09T15:44:51.548Z,24.47
2022-08-09T15:47:21.646Z,24.43
2022-08-09T15:50:00.750Z,24.40
2022-08-09T15:52:34.622Z,24.33
2022-08-09T15:55:03.117Z,24.25
2022-08-09T15:57:36.013Z,24.18
2022-08-09T16:00:24.193Z,24.14
2022-08-09T16:02:56.792Z,24.09
2022-08-09T16:05:47.226Z,24.03
2022-08-09T16:08:30.543Z,23.98
2022-08-09T16:11:02.100Z,23.95
2022-08-09T16:14:02.581Z,23.96
2022-08-09T16:16:28.133Z,23.93
2022-08-09T16:18:57.340Z,23.90
2022-08-09T16:21:26.510Z,23.87
2022-08-09T16:24:02.221Z,23.82
2022-08-09T16:26:34.760Z,23.80
2022-08-09T16:29:11.244Z,23.76
2022-08-09T16:32:19.086Z,23.76
2022-08-09T16:34:44.829Z,23.75
2022-08-09T16:37:55.229Z,23.72
2022-08-09T16:40:13.706Z,23.67
2022-08-09T16:42:44.807Z,23.61
2022-08-09T16:45:19.314Z,23.57
2022-08-09T16:48:38.090Z,23.55
2022-08-09T16:50:39.345Z,23.53
2022-08-09T16:53:09.016Z,23.52
2022-08-09T16:55:59.068Z,23.52
2022-08-09T16:58:27.124Z,23.49
2022-08-09T17:00:56.482Z,23.47
2022-08-09T17:03:28.182Z,23.45
2022-08-09T17:06:07.160Z,23.41
2022-08-09T17:09:01.396Z,23.36
2022-08-09T17:11:41.923Z,23.30
2022-08-09T17:14:25.995Z,23.25
2022-08-09T17:17:01.494Z,23.19
2022-08-09T17:19:47.211Z,23.14
2022-08-09T17:22:29.069Z,23.10
2022-08-09T17:25:05.100Z,23.04
2022-08-09T17:27:49.070Z,23.01
2022-08-09T17:30:19.728Z,22.98
2022-08-09T17:32:52.926Z,22.93
2022-08-09T17:35:22.365Z,22.87
2022-08-09T17:38:11.495Z,22.81
2022-08-09T17:40:47.334Z,22.71
2022-08-09T17:43:34.102Z,22.59
2022-08-09T17:46:09.161Z,22.47
2022-08-09T17:48:51.833Z,22.32
2022-08-09T17:51:22.110Z,22.15
2022-08-09T17:53:54.797Z,22.02
2022-08-09T17:56:27.251Z,21.87
2022-08-09T17:58:59.486Z,21.75
2022-08-09T18:02:03.220Z,21.67
2022-08-09T18:04:21.580Z,21.55
2022-08-09T18:06:55.268Z,21.40
2022-08-09T18:09:40.036Z,21.31
2022-08-09T18:12:19.452Z,21.18
2022-08-09T18:14:54.875Z,21.04
2022-08-09T18:17:27.517Z,20.91
2022-08-09T18:20:54.577Z,20.74
2022-08-09T18:23:07.118Z,20.55
2022-08-09T18:25:52.944Z,20.42
2022-08-09T18:30:42.606Z,20.28
2022-08-09T18:31:24.980Z,20.13
2022-08-09T18:34:08.660Z,20.00
2022-08-09T18:36:38.215Z,19.88
2022-08-09T18:39:07.438Z,19.78
2022-08-09T18:41:52.512Z,19.63
2022-08-09T18:44:25.767Z,19.52
2022-08-09T18:47:05.139Z,19.43
2022-08-09T18:49:46.726Z,19.31
2022-08-09T18:52:24.711Z,19.22
2022-08-09T18:54:54.460Z,19.12
2022-08-09T18:57:43.001Z,19.01
2022-08-09T19:00:20.302Z,18.91
2022-08-09T19:02:54.083Z,18.85
2022-08-09T19:05:41.538Z,18.79
2022-08-09T19:08:19.693Z,18.78
2022-08-09T19:10:54.127Z,18.72
2022-08-09T19:13:38.579Z,18.64
2022-08-09T19:16:20.849Z,18.55
2022-08-09T19:18:52.244Z,18.48
2022-08-09T19:21:21.709Z,18.43
2022-08-09T19:24:37.355Z,18.36
2022-08-09T19:27:11.531Z,18.29
2022-08-09T19:30:21.394Z,18.22
2022-08-09T19:32:37.437Z,18.14
2022-08-09T19:35:09.247Z,18.09
2022-08-09T19:37:54.592Z,18.04
2022-08-09T19:40:34.048Z,17.97
2022-08-09T19:43:10.199Z,17.90
2022-08-09T19:45:45.391Z,17.84
2022-08-09T19:48:16.629Z,17.82
2022-08-09T19:51:07.919Z,17.78
2022-08-09T19:53:37.225Z,17.72
2022-08-09T19:56:15.445Z,17.67
2022-08-09T19:58:56.382Z,17.63
2022-08-09T20:01:52.196Z,17.60
2022-08-09T20:04:36.662Z,17.56
2022-08-09T20:07:12.204Z,17.47
2022-08-09T20:09:50.029Z,17.39
2022-08-09T20:12:30.297Z,17.34
2022-08-09T20:16:31.664Z,17.30
2022-08-09T20:18:02.272Z,17.27
2022-08-09T20:20:35.357Z,17.22
2022-08-09T20:23:07.896Z,17.16
2022-08-09T20:25:52.584Z,17.14
2022-08-09T20:28:34.179Z,17.08
2022-08-09T20:31:04.905Z,17.00
2022-08-09T20:33:41.367Z,16.95
2022-08-09T20:36:14.168Z,16.88
2022-08-09T20:39:28.283Z,16.80
2022-08-09T20:41:35.720Z,16.74
2022-08-09T20:44:10.408Z,16.69
2022-08-09T20:46:44.690Z,16.65
2022-08-09T20:49:15.988Z,16.62
2022-08-09T20:51:50.553Z,16.58
2022-08-09T20:54:21.346Z,16.53
2022-08-09T20:56:54.130Z,16.49
2022-08-09T20:59:49.939Z,16.46
2022-08-09T21:02:17.723Z,16.43
2022-08-09T21:05:52.521Z,16.41
2022-08-09T21:07:40.251Z,16.39
2022-08-09T21:10:13.127Z,16.35
2022-08-09T21:15:33.995Z,16.33
2022-08-09T21:18:23.475Z,16.29
2022-08-09T21:20:54.840Z,16.23
2022-08-09T21:23:36.096Z,16.20
2022-08-09T21:26:15.683Z,16.17
2022-08-09T21:28:56.082Z,16.12
2022-08-09T21:31:48.592Z,16.07
2022-08-09T21:34:21.026Z,16.05
2022-08-09T21:36:57.958Z,16.00
2022-08-09T21:39:28.383Z,15.97
2022-08-09T21:42:11.902Z,15.94
2022-08-09T21:44:41.102Z,15.92
2022-08-09T21:47:17.500Z,15.92
2022-08-09T21:49:51.153Z,15.88
2022-08-09T21:52:21.045Z,15.86
2022-08-09T21:54:57.112Z,15.83
2022-08-09T21:57:38.250Z,15.80
2022-08-09T22:00:31.830Z,15.72
2022-08-09T22:03:04.756Z,15.66
2022-08-09T22:05:36.727Z,15.62
2022-08-09T22:08:14.776Z,15.58
2022-08-09T22:11:00.992Z,15.55
2022-08-09T22:13:36.721Z,15.49
2022-08-09T22:16:08.625Z,15.48
2022-08-09T22:18:53.022Z,15.48
2022-08-09T22:21:27.656Z,15.43
2022-08-09T22:24:17.075Z,15.38
2022-08-09T22:26:51.208Z,15.37
2022-08-09T22:29:28.429Z,15.35
2022-08-09T22:32:00.425Z,15.36
2022-08-09T22:34:30.302Z,15.32
2022-08-09T22:36:59.789Z,15.29
2022-08-09T22:39:55.707Z,15.27
2022-08-09T22:42:20.965Z,15.22
2022-08-09T22:48:04.885Z,15.15
2022-08-09T22:48:15.226Z,15.07
2022-08-09T22:50:31.576Z,15.00
2022-08-09T22:53:03.779Z,15.00
2022-08-09T22:56:06.411Z,15.01
2022-08-09T22:58:32.381Z,14.96
2022-08-09T23:01:05.628Z,14.91
2022-08-09T23:04:03.907Z,14.88
2022-08-09T23:06:35.142Z,14.82
2022-08-09T23:09:07.923Z,14.78
2022-08-09T23:11:36.790Z,14.78
2022-08-09T23:14:17.255Z,14.75
2022-08-09T23:16:46.456Z,14.71
2022-08-09T23:19:15.298Z,14.66
2022-08-09T23:21:43.992Z,14.61
2022-08-09T23:24:13.418Z,14.59
2022-08-09T23:26:42.228Z,14.57
2022-08-09T23:29:13.047Z,14.56
2022-08-09T23:31:42.811Z,14.55
2022-08-09T23:34:11.928Z,14.51
2022-08-09T23:36:40.867Z,14.50
2022-08-09T23:39:09.644Z,14.49
2022-08-09T23:41:38.692Z,14.47
2022-08-09T23:44:07.545Z,14.46
2022-08-09T23:46:36.369Z,14.43
2022-08-09T23:49:05.116Z,14.44
2022-08-09T23:51:35.271Z,14.44
2022-08-09T23:54:04.332Z,14.40
2022-08-09T23:56:52.243Z,14.35
2022-08-09T23:59:25.104Z,14.30
